sensor_id;sensor_type;location;lat;lon;timestamp;temperature;humidity
55777;DHT22;54079;44.540;18.784;2024-01-11T00:00:35;-4.40;99.90
55777;DHT22;54079;44.540;18.784;2024-01-11T00:03:01;-4.40;99.90
55777;DHT22;54079;44.540;18.784;2024-01-11T00:05:27;-4.40;97.90
55777;DHT22;54079;44.540;18.784;2024-01-11T00:07:53;-4.70;97.60
55777;DHT22;54079;44.540;18.784;2024-01-11T00:10:19;-5.00;99.10
55777;DHT22;54079;44.540;18.784;2024-01-11T00:12:46;-5.10;99.70
55777;DHT22;54079;44.540;18.784;2024-01-11T00:15:12;-4.90;99.90
55777;DHT22;54079;44.540;18.784;2024-01-11T00:17:38;-4.50;99.90
55777;DHT22;54079;44.540;18.784;2024-01-11T00:20:05;-4.60;99.60
55777;DHT22;54079;44.540;18.784;2024-01-11T00:22:31;-4.60;98.30
55777;DHT22;54079;44.540;18.784;2024-01-11T00:24:57;-4.60;97.80
55777;DHT22;54079;44.540;18.784;2024-01-11T00:27:23;-4.70;98.30
55777;DHT22;54079;44.540;18.784;2024-01-11T00:29:49;-4.60;98.30
55777;DHT22;54079;44.540;18.784;2024-01-11T00:32:15;-4.50;98.10
55777;DHT22;54079;44.540;18.784;2024-01-11T00:34:41;-4.60;97.70
55777;DHT22;54079;44.540;18.784;2024-01-11T00:37:07;-4.60;97.20
55777;DHT22;54079;44.540;18.784;2024-01-11T00:39:33;-4.50;98.40
55777;DHT22;54079;44.540;18.784;2024-01-11T00:41:59;-4.60;98.20
55777;DHT22;54079;44.540;18.784;2024-01-11T00:44:25;-4.70;98.50
55777;DHT22;54079;44.540;18.784;2024-01-11T00:46:51;-4.70;98.10
55777;DHT22;54079;44.540;18.784;2024-01-11T00:49:17;-4.60;98.70
55777;DHT22;54079;44.540;18.784;2024-01-11T00:51:43;-4.50;99.40
55777;DHT22;54079;44.540;18.784;2024-01-11T00:54:09;-4.40;97.90
55777;DHT22;54079;44.540;18.784;2024-01-11T00:56:35;-4.30;98.70
55777;DHT22;54079;44.540;18.784;2024-01-11T00:59:01;-4.30;97.90
55777;DHT22;54079;44.540;18.784;2024-01-11T01:01:27;-4.40;96.70
55777;DHT22;54079;44.540;18.784;2024-01-11T01:03:53;-4.40;96.80
55777;DHT22;54079;44.540;18.784;2024-01-11T01:06:19;-4.40;97.60
55777;DHT22;54079;44.540;18.784;2024-01-11T01:08:45;-4.30;97.70
55777;DHT22;54079;44.540;18.784;2024-01-11T01:11:10;-4.10;99.50
55777;DHT22;54079;44.540;18.784;2024-01-11T01:13:36;-4.00;99.20
55777;DHT22;54079;44.540;18.784;2024-01-11T01:16:03;-4.00;98.10
55777;DHT22;54079;44.540;18.784;2024-01-11T01:18:29;-4.00;97.80
55777;DHT22;54079;44.540;18.784;2024-01-11T01:20:55;-4.20;96.20
55777;DHT22;54079;44.540;18.784;2024-01-11T01:23:21;-4.40;96.40
55777;DHT22;54079;44.540;18.784;2024-01-11T01:25:47;-4.60;98.20
55777;DHT22;54079;44.540;18.784;2024-01-11T01:28:13;-4.60;97.50
55777;DHT22;54079;44.540;18.784;2024-01-11T01:30:39;-4.50;97.70
55777;DHT22;54079;44.540;18.784;2024-01-11T01:33:05;-4.70;97.50
55777;DHT22;54079;44.540;18.784;2024-01-11T01:35:31;-4.70;97.90
55777;DHT22;54079;44.540;18.784;2024-01-11T01:37:56;-4.60;98.10
55777;DHT22;54079;44.540;18.784;2024-01-11T01:40:22;-4.70;97.40
55777;DHT22;54079;44.540;18.784;2024-01-11T01:42:49;-4.90;98.60
55777;DHT22;54079;44.540;18.784;2024-01-11T01:45:15;-4.90;99.50
55777;DHT22;54079;44.540;18.784;2024-01-11T01:47:42;-5.00;98.60
55777;DHT22;54079;44.540;18.784;2024-01-11T01:50:10;-5.00;99.50
55777;DHT22;54079;44.540;18.784;2024-01-11T01:52:37;-5.20;99.30
55777;DHT22;54079;44.540;18.784;2024-01-11T01:55:04;-5.20;99.60
55777;DHT22;54079;44.540;18.784;2024-01-11T01:57:33;-5.10;98.90
55777;DHT22;54079;44.540;18.784;2024-01-11T02:00:00;-5.20;99.50
55777;DHT22;54079;44.540;18.784;2024-01-11T02:02:28;-5.10;99.00
55777;DHT22;54079;44.540;18.784;2024-01-11T02:04:56;-5.10;97.70
55777;DHT22;54079;44.540;18.784;2024-01-11T02:07:23;-5.00;98.10
55777;DHT22;54079;44.540;18.784;2024-01-11T02:09:50;-5.10;98.00
55777;DHT22;54079;44.540;18.784;2024-01-11T02:12:17;-5.30;98.50
55777;DHT22;54079;44.540;18.784;2024-01-11T02:14:44;-5.20;98.80
55777;DHT22;54079;44.540;18.784;2024-01-11T02:17:10;-5.00;99.10
55777;DHT22;54079;44.540;18.784;2024-01-11T02:19:36;-4.90;98.50
55777;DHT22;54079;44.540;18.784;2024-01-11T02:22:10;-5.10;98.20
55777;DHT22;54079;44.540;18.784;2024-01-11T02:24:38;-5.20;97.80
55777;DHT22;54079;44.540;18.784;2024-01-11T02:27:05;-5.10;98.00
55777;DHT22;54079;44.540;18.784;2024-01-11T02:29:31;-5.10;98.00
55777;DHT22;54079;44.540;18.784;2024-01-11T02:32:00;-5.20;99.10
55777;DHT22;54079;44.540;18.784;2024-01-11T02:34:27;-5.10;99.00
55777;DHT22;54079;44.540;18.784;2024-01-11T02:36:54;-5.10;98.50
55777;DHT22;54079;44.540;18.784;2024-01-11T02:39:22;-5.10;98.40
55777;DHT22;54079;44.540;18.784;2024-01-11T02:41:53;-5.10;98.00
55777;DHT22;54079;44.540;18.784;2024-01-11T02:44:19;-5.20;97.80
55777;DHT22;54079;44.540;18.784;2024-01-11T02:46:45;-5.20;98.80
55777;DHT22;54079;44.540;18.784;2024-01-11T02:49:11;-5.00;98.80
55777;DHT22;54079;44.540;18.784;2024-01-11T02:51:37;-5.00;98.50
55777;DHT22;54079;44.540;18.784;2024-01-11T02:54:03;-5.00;99.10
55777;DHT22;54079;44.540;18.784;2024-01-11T02:56:29;-5.10;97.80
55777;DHT22;54079;44.540;18.784;2024-01-11T02:58:55;-5.20;97.50
55777;DHT22;54079;44.540;18.784;2024-01-11T03:01:21;-5.20;97.90
55777;DHT22;54079;44.540;18.784;2024-01-11T03:03:47;-5.10;97.50
55777;DHT22;54079;44.540;18.784;2024-01-11T03:06:13;-4.90;97.70
55777;DHT22;54079;44.540;18.784;2024-01-11T03:08:39;-4.80;97.60
55777;DHT22;54079;44.540;18.784;2024-01-11T03:11:06;-5.00;97.60
55777;DHT22;54079;44.540;18.784;2024-01-11T03:13:32;-5.10;97.60
55777;DHT22;54079;44.540;18.784;2024-01-11T03:15:58;-5.10;97.60
55777;DHT22;54079;44.540;18.784;2024-01-11T03:18:23;-4.90;98.10
55777;DHT22;54079;44.540;18.784;2024-01-11T03:20:49;-5.00;98.00
55777;DHT22;54079;44.540;18.784;2024-01-11T03:23:15;-5.10;98.40
55777;DHT22;54079;44.540;18.784;2024-01-11T03:25:41;-5.00;97.90
55777;DHT22;54079;44.540;18.784;2024-01-11T03:28:07;-4.90;99.00
55777;DHT22;54079;44.540;18.784;2024-01-11T03:30:33;-4.80;98.50
55777;DHT22;54079;44.540;18.784;2024-01-11T03:32:59;-4.60;98.00
55777;DHT22;54079;44.540;18.784;2024-01-11T03:35:25;-4.50;97.40
55777;DHT22;54079;44.540;18.784;2024-01-11T03:37:51;-4.40;96.20
55777;DHT22;54079;44.540;18.784;2024-01-11T03:40:17;-4.80;96.30
55777;DHT22;54079;44.540;18.784;2024-01-11T03:42:43;-4.80;97.50
55777;DHT22;54079;44.540;18.784;2024-01-11T03:45:09;-4.50;99.20
55777;DHT22;54079;44.540;18.784;2024-01-11T03:47:35;-4.30;99.00
55777;DHT22;54079;44.540;18.784;2024-01-11T03:50:01;-4.10;97.90
55777;DHT22;54079;44.540;18.784;2024-01-11T03:52:28;-4.00;97.20
55777;DHT22;54079;44.540;18.784;2024-01-11T03:54:54;-3.80;97.00
55777;DHT22;54079;44.540;18.784;2024-01-11T03:57:20;-3.60;97.50
55777;DHT22;54079;44.540;18.784;2024-01-11T03:59:46;-3.40;97.10
55777;DHT22;54079;44.540;18.784;2024-01-11T04:02:12;-3.20;97.40
55777;DHT22;54079;44.540;18.784;2024-01-11T04:04:38;-3.10;97.10
55777;DHT22;54079;44.540;18.784;2024-01-11T04:07:04;-3.20;97.10
55777;DHT22;54079;44.540;18.784;2024-01-11T04:09:30;-3.10;96.30
55777;DHT22;54079;44.540;18.784;2024-01-11T04:11:56;-3.00;96.70
55777;DHT22;54079;44.540;18.784;2024-01-11T04:14:22;-2.80;96.80
55777;DHT22;54079;44.540;18.784;2024-01-11T04:16:48;-2.70;95.60
55777;DHT22;54079;44.540;18.784;2024-01-11T04:19:14;-2.70;95.00
55777;DHT22;54079;44.540;18.784;2024-01-11T04:21:40;-2.90;95.00
55777;DHT22;54079;44.540;18.784;2024-01-11T04:24:06;-2.70;95.10
55777;DHT22;54079;44.540;18.784;2024-01-11T04:26:32;-2.70;94.60
55777;DHT22;54079;44.540;18.784;2024-01-11T04:28:59;-2.80;94.50
55777;DHT22;54079;44.540;18.784;2024-01-11T04:31:26;-2.70;94.10
55777;DHT22;54079;44.540;18.784;2024-01-11T04:33:52;-2.60;94.60
55777;DHT22;54079;44.540;18.784;2024-01-11T04:36:18;-2.40;94.50
55777;DHT22;54079;44.540;18.784;2024-01-11T04:38:44;-2.90;94.70
55777;DHT22;54079;44.540;18.784;2024-01-11T04:41:11;-3.00;94.80
55777;DHT22;54079;44.540;18.784;2024-01-11T04:43:42;-3.00;95.40
55777;DHT22;54079;44.540;18.784;2024-01-11T04:46:19;-2.60;95.00
55777;DHT22;54079;44.540;18.784;2024-01-11T04:48:46;-2.60;94.70
55777;DHT22;54079;44.540;18.784;2024-01-11T04:51:13;-2.50;94.80
55777;DHT22;54079;44.540;18.784;2024-01-11T04:53:39;-2.50;94.60
55777;DHT22;54079;44.540;18.784;2024-01-11T04:56:10;-2.40;94.60
55777;DHT22;54079;44.540;18.784;2024-01-11T04:58:39;-2.30;94.60
55777;DHT22;54079;44.540;18.784;2024-01-11T05:01:06;-2.20;95.00
55777;DHT22;54079;44.540;18.784;2024-01-11T05:03:32;-2.40;95.10
55777;DHT22;54079;44.540;18.784;2024-01-11T05:05:58;-2.40;96.10
55777;DHT22;54079;44.540;18.784;2024-01-11T05:08:27;-2.30;95.90
55777;DHT22;54079;44.540;18.784;2024-01-11T05:10:53;-2.50;96.40
55777;DHT22;54079;44.540;18.784;2024-01-11T05:13:19;-2.40;96.40
55777;DHT22;54079;44.540;18.784;2024-01-11T05:15:46;-2.60;96.70
55777;DHT22;54079;44.540;18.784;2024-01-11T05:18:12;-2.40;95.80
55777;DHT22;54079;44.540;18.784;2024-01-11T05:20:39;-2.40;96.30
55777;DHT22;54079;44.540;18.784;2024-01-11T05:23:05;-2.10;96.10
55777;DHT22;54079;44.540;18.784;2024-01-11T05:25:32;-2.00;95.60
55777;DHT22;54079;44.540;18.784;2024-01-11T05:28:03;-2.10;95.60
55777;DHT22;54079;44.540;18.784;2024-01-11T05:30:30;-2.20;96.10
55777;DHT22;54079;44.540;18.784;2024-01-11T05:32:56;-1.90;96.70
55777;DHT22;54079;44.540;18.784;2024-01-11T05:35:22;-1.90;96.30
55777;DHT22;54079;44.540;18.784;2024-01-11T05:37:53;-1.70;96.10
55777;DHT22;54079;44.540;18.784;2024-01-11T05:40:21;-1.80;95.90
55777;DHT22;54079;44.540;18.784;2024-01-11T05:42:47;-1.80;96.20
55777;DHT22;54079;44.540;18.784;2024-01-11T05:45:13;-1.90;96.20
55777;DHT22;54079;44.540;18.784;2024-01-11T05:47:43;-2.00;96.30
55777;DHT22;54079;44.540;18.784;2024-01-11T05:50:10;-1.80;95.60
55777;DHT22;54079;44.540;18.784;2024-01-11T05:52:37;-1.90;95.50
55777;DHT22;54079;44.540;18.784;2024-01-11T05:55:03;-1.80;95.80
55777;DHT22;54079;44.540;18.784;2024-01-11T05:57:30;-1.70;96.00
55777;DHT22;54079;44.540;18.784;2024-01-11T05:59:56;-1.80;95.80
55777;DHT22;54079;44.540;18.784;2024-01-11T06:02:22;-1.80;95.80
55777;DHT22;54079;44.540;18.784;2024-01-11T06:04:48;-2.00;96.00
55777;DHT22;54079;44.540;18.784;2024-01-11T06:07:15;-2.00;96.30
55777;DHT22;54079;44.540;18.784;2024-01-11T06:09:41;-1.70;96.20
55777;DHT22;54079;44.540;18.784;2024-01-11T06:12:07;-1.80;96.10
55777;DHT22;54079;44.540;18.784;2024-01-11T06:14:34;-1.80;96.70
55777;DHT22;54079;44.540;18.784;2024-01-11T06:17:00;-1.90;96.00
55777;DHT22;54079;44.540;18.784;2024-01-11T06:19:26;-2.00;96.70
55777;DHT22;54079;44.540;18.784;2024-01-11T06:21:52;-1.80;96.80
55777;DHT22;54079;44.540;18.784;2024-01-11T06:24:18;-1.60;96.70
55777;DHT22;54079;44.540;18.784;2024-01-11T06:26:44;-1.50;96.60
55777;DHT22;54079;44.540;18.784;2024-01-11T06:29:10;-1.30;96.80
55777;DHT22;54079;44.540;18.784;2024-01-11T06:31:36;-1.10;96.40
55777;DHT22;54079;44.540;18.784;2024-01-11T06:34:02;-0.90;96.00
55777;DHT22;54079;44.540;18.784;2024-01-11T06:36:30;-0.80;95.70
55777;DHT22;54079;44.540;18.784;2024-01-11T06:38:56;-1.00;95.50
55777;DHT22;54079;44.540;18.784;2024-01-11T06:41:22;-1.00;95.60
55777;DHT22;54079;44.540;18.784;2024-01-11T06:43:47;-0.90;95.30
55777;DHT22;54079;44.540;18.784;2024-01-11T06:46:18;-0.90;95.30
55777;DHT22;54079;44.540;18.784;2024-01-11T06:48:45;-0.70;95.10
55777;DHT22;54079;44.540;18.784;2024-01-11T06:51:23;-0.70;95.00
55777;DHT22;54079;44.540;18.784;2024-01-11T06:53:49;-0.70;95.10
55777;DHT22;54079;44.540;18.784;2024-01-11T06:56:16;-0.60;95.30
55777;DHT22;54079;44.540;18.784;2024-01-11T06:58:43;-0.60;95.30
55777;DHT22;54079;44.540;18.784;2024-01-11T07:01:10;-0.50;95.80
55777;DHT22;54079;44.540;18.784;2024-01-11T07:03:36;-0.40;95.50
55777;DHT22;54079;44.540;18.784;2024-01-11T07:06:02;-0.40;95.80
55777;DHT22;54079;44.540;18.784;2024-01-11T07:08:29;-0.20;95.60
55777;DHT22;54079;44.540;18.784;2024-01-11T07:10:56;-0.20;95.20
55777;DHT22;54079;44.540;18.784;2024-01-11T07:13:22;-0.20;95.10
55777;DHT22;54079;44.540;18.784;2024-01-11T07:15:48;-0.40;94.80
55777;DHT22;54079;44.540;18.784;2024-01-11T07:18:15;-0.40;96.50
55777;DHT22;54079;44.540;18.784;2024-01-11T07:20:41;-0.30;95.30
55777;DHT22;54079;44.540;18.784;2024-01-11T07:23:06;-0.20;94.90
55777;DHT22;54079;44.540;18.784;2024-01-11T07:25:33;-0.30;95.50
55777;DHT22;54079;44.540;18.784;2024-01-11T07:28:01;0.00;94.90
55777;DHT22;54079;44.540;18.784;2024-01-11T07:30:27;0.00;94.70
55777;DHT22;54079;44.540;18.784;2024-01-11T07:32:53;0.10;94.40
55777;DHT22;54079;44.540;18.784;2024-01-11T07:35:19;0.10;94.90
55777;DHT22;54079;44.540;18.784;2024-01-11T07:37:46;0.10;94.90
55777;DHT22;54079;44.540;18.784;2024-01-11T07:40:12;0.40;94.50
55777;DHT22;54079;44.540;18.784;2024-01-11T07:42:39;0.60;94.20
55777;DHT22;54079;44.540;18.784;2024-01-11T07:45:09;0.50;93.50
55777;DHT22;54079;44.540;18.784;2024-01-11T07:47:39;0.30;93.50
55777;DHT22;54079;44.540;18.784;2024-01-11T07:50:06;0.20;94.80
55777;DHT22;54079;44.540;18.784;2024-01-11T07:52:33;0.50;94.80
55777;DHT22;54079;44.540;18.784;2024-01-11T07:54:59;0.60;94.00
55777;DHT22;54079;44.540;18.784;2024-01-11T07:57:35;0.80;93.60
55777;DHT22;54079;44.540;18.784;2024-01-11T08:00:01;0.40;94.50
55777;DHT22;54079;44.540;18.784;2024-01-11T08:02:28;0.60;94.20
55777;DHT22;54079;44.540;18.784;2024-01-11T08:04:54;0.50;94.40
55777;DHT22;54079;44.540;18.784;2024-01-11T08:07:20;0.60;93.90
55777;DHT22;54079;44.540;18.784;2024-01-11T08:09:47;0.60;93.80
55777;DHT22;54079;44.540;18.784;2024-01-11T08:12:14;0.70;93.90
55777;DHT22;54079;44.540;18.784;2024-01-11T08:14:40;0.80;94.10
55777;DHT22;54079;44.540;18.784;2024-01-11T08:17:10;0.90;93.60
55777;DHT22;54079;44.540;18.784;2024-01-11T08:19:36;0.90;93.70
55777;DHT22;54079;44.540;18.784;2024-01-11T08:22:03;1.10;93.70
55777;DHT22;54079;44.540;18.784;2024-01-11T08:24:30;1.00;93.20
55777;DHT22;54079;44.540;18.784;2024-01-11T08:26:56;1.20;93.10
55777;DHT22;54079;44.540;18.784;2024-01-11T08:29:23;1.10;93.20
55777;DHT22;54079;44.540;18.784;2024-01-11T08:31:50;1.20;93.70
55777;DHT22;54079;44.540;18.784;2024-01-11T08:34:16;1.10;93.20
55777;DHT22;54079;44.540;18.784;2024-01-11T08:36:42;1.20;93.30
55777;DHT22;54079;44.540;18.784;2024-01-11T08:39:08;0.90;93.20
55777;DHT22;54079;44.540;18.784;2024-01-11T08:41:34;1.00;93.00
55777;DHT22;54079;44.540;18.784;2024-01-11T08:44:04;1.10;92.90
55777;DHT22;54079;44.540;18.784;2024-01-11T08:46:33;1.10;93.30
55777;DHT22;54079;44.540;18.784;2024-01-11T08:49:00;1.30;93.00
55777;DHT22;54079;44.540;18.784;2024-01-11T08:51:29;1.30;92.40
55777;DHT22;54079;44.540;18.784;2024-01-11T08:53:55;1.50;92.50
55777;DHT22;54079;44.540;18.784;2024-01-11T08:56:22;1.50;91.90
55777;DHT22;54079;44.540;18.784;2024-01-11T08:58:48;1.80;92.10
55777;DHT22;54079;44.540;18.784;2024-01-11T09:01:14;1.80;91.20
55777;DHT22;54079;44.540;18.784;2024-01-11T09:03:40;1.50;91.40
55777;DHT22;54079;44.540;18.784;2024-01-11T09:06:06;1.20;91.60
55777;DHT22;54079;44.540;18.784;2024-01-11T09:08:33;0.90;92.00
55777;DHT22;54079;44.540;18.784;2024-01-11T09:10:59;0.80;92.50
55777;DHT22;54079;44.540;18.784;2024-01-11T09:13:26;0.90;92.50
55777;DHT22;54079;44.540;18.784;2024-01-11T09:15:53;1.10;92.50
55777;DHT22;54079;44.540;18.784;2024-01-11T09:18:20;0.90;92.20
55777;DHT22;54079;44.540;18.784;2024-01-11T09:20:46;0.90;92.70
55777;DHT22;54079;44.540;18.784;2024-01-11T09:23:13;0.80;93.00
55777;DHT22;54079;44.540;18.784;2024-01-11T09:25:39;1.20;93.70
55777;DHT22;54079;44.540;18.784;2024-01-11T09:28:05;1.40;92.00
55777;DHT22;54079;44.540;18.784;2024-01-11T09:30:31;1.50;92.50
55777;DHT22;54079;44.540;18.784;2024-01-11T09:32:58;1.90;92.70
55777;DHT22;54079;44.540;18.784;2024-01-11T09:35:24;1.90;91.70
55777;DHT22;54079;44.540;18.784;2024-01-11T09:37:50;2.10;91.50
55777;DHT22;54079;44.540;18.784;2024-01-11T09:40:17;2.20;91.70
55777;DHT22;54079;44.540;18.784;2024-01-11T09:42:44;2.30;92.00
55777;DHT22;54079;44.540;18.784;2024-01-11T09:45:13;2.30;91.20
55777;DHT22;54079;44.540;18.784;2024-01-11T09:47:41;2.30;90.90
55777;DHT22;54079;44.540;18.784;2024-01-11T09:50:08;2.30;91.40
55777;DHT22;54079;44.540;18.784;2024-01-11T09:52:34;2.40;91.30
55777;DHT22;54079;44.540;18.784;2024-01-11T09:55:00;2.50;91.40
55777;DHT22;54079;44.540;18.784;2024-01-11T09:57:33;2.50;90.60
55777;DHT22;54079;44.540;18.784;2024-01-11T10:00:04;2.80;90.90
55777;DHT22;54079;44.540;18.784;2024-01-11T10:02:33;2.80;90.60
55777;DHT22;54079;44.540;18.784;2024-01-11T10:04:59;2.80;90.70
55777;DHT22;54079;44.540;18.784;2024-01-11T10:07:25;2.90;89.90
55777;DHT22;54079;44.540;18.784;2024-01-11T10:09:51;2.90;90.00
55777;DHT22;54079;44.540;18.784;2024-01-11T10:12:19;3.10;89.80
55777;DHT22;54079;44.540;18.784;2024-01-11T10:14:48;3.30;90.60
55777;DHT22;54079;44.540;18.784;2024-01-11T10:17:14;3.10;88.00
55777;DHT22;54079;44.540;18.784;2024-01-11T10:19:40;3.10;88.60
55777;DHT22;54079;44.540;18.784;2024-01-11T10:22:07;3.20;89.50
55777;DHT22;54079;44.540;18.784;2024-01-11T10:24:33;2.90;89.00
55777;DHT22;54079;44.540;18.784;2024-01-11T10:27:01;3.00;89.30
55777;DHT22;54079;44.540;18.784;2024-01-11T10:29:33;2.90;90.00
55777;DHT22;54079;44.540;18.784;2024-01-11T10:32:03;2.90;90.00
55777;DHT22;54079;44.540;18.784;2024-01-11T10:34:29;2.40;88.50
55777;DHT22;54079;44.540;18.784;2024-01-11T10:36:56;1.30;90.90
55777;DHT22;54079;44.540;18.784;2024-01-11T10:39:26;1.40;91.20
55777;DHT22;54079;44.540;18.784;2024-01-11T10:42:05;1.70;92.30
55777;DHT22;54079;44.540;18.784;2024-01-11T10:44:34;1.90;92.40
55777;DHT22;54079;44.540;18.784;2024-01-11T10:47:03;1.40;93.30
55777;DHT22;54079;44.540;18.784;2024-01-11T10:49:30;1.50;92.00
55777;DHT22;54079;44.540;18.784;2024-01-11T10:52:03;2.00;92.60
55777;DHT22;54079;44.540;18.784;2024-01-11T10:54:31;2.10;91.30
55777;DHT22;54079;44.540;18.784;2024-01-11T10:57:00;2.20;92.10
55777;DHT22;54079;44.540;18.784;2024-01-11T10:59:29;2.30;91.40
55777;DHT22;54079;44.540;18.784;2024-01-11T11:01:58;2.60;91.30
55777;DHT22;54079;44.540;18.784;2024-01-11T11:04:28;1.20;91.00
55777;DHT22;54079;44.540;18.784;2024-01-11T11:06:58;1.40;92.50
55777;DHT22;54079;44.540;18.784;2024-01-11T11:09:25;2.10;92.70
55777;DHT22;54079;44.540;18.784;2024-01-11T11:11:58;1.90;91.30
55777;DHT22;54079;44.540;18.784;2024-01-11T11:14:25;2.30;92.80
55777;DHT22;54079;44.540;18.784;2024-01-11T11:16:52;1.80;90.60
55777;DHT22;54079;44.540;18.784;2024-01-11T11:19:20;2.10;91.50
55777;DHT22;54079;44.540;18.784;2024-01-11T11:21:48;2.50;91.10
55777;DHT22;54079;44.540;18.784;2024-01-11T11:24:16;3.00;91.00
55777;DHT22;54079;44.540;18.784;2024-01-11T11:26:42;3.40;90.50
55777;DHT22;54079;44.540;18.784;2024-01-11T11:29:09;3.70;89.40
55777;DHT22;54079;44.540;18.784;2024-01-11T11:34:03;3.80;87.80
55777;DHT22;54079;44.540;18.784;2024-01-11T11:36:30;3.90;90.10
55777;DHT22;54079;44.540;18.784;2024-01-11T11:38:58;3.60;87.60
55777;DHT22;54079;44.540;18.784;2024-01-11T11:41:31;3.70;88.30
55777;DHT22;54079;44.540;18.784;2024-01-11T11:44:04;3.00;88.90
55777;DHT22;54079;44.540;18.784;2024-01-11T11:46:32;3.20;90.00
55777;DHT22;54079;44.540;18.784;2024-01-11T11:48:58;3.60;91.00
55777;DHT22;54079;44.540;18.784;2024-01-11T11:51:25;3.70;90.10
55777;DHT22;54079;44.540;18.784;2024-01-11T11:53:53;3.60;88.50
55777;DHT22;54079;44.540;18.784;2024-01-11T11:56:21;3.40;89.90
55777;DHT22;54079;44.540;18.784;2024-01-11T11:58:49;3.30;89.70
55777;DHT22;54079;44.540;18.784;2024-01-11T12:01:21;3.40;89.30
55777;DHT22;54079;44.540;18.784;2024-01-11T12:03:47;3.70;88.90
55777;DHT22;54079;44.540;18.784;2024-01-11T12:06:17;3.60;88.00
55777;DHT22;54079;44.540;18.784;2024-01-11T12:08:44;3.60;89.30
55777;DHT22;54079;44.540;18.784;2024-01-11T12:11:29;3.60;90.10
55777;DHT22;54079;44.540;18.784;2024-01-11T12:13:55;3.50;88.20
55777;DHT22;54079;44.540;18.784;2024-01-11T12:16:22;3.70;88.90
55777;DHT22;54079;44.540;18.784;2024-01-11T12:18:49;3.60;87.60
55777;DHT22;54079;44.540;18.784;2024-01-11T12:21:15;3.60;88.20
55777;DHT22;54079;44.540;18.784;2024-01-11T12:23:43;3.60;88.00
55777;DHT22;54079;44.540;18.784;2024-01-11T12:26:09;3.70;90.50
55777;DHT22;54079;44.540;18.784;2024-01-11T12:28:39;3.90;90.50
55777;DHT22;54079;44.540;18.784;2024-01-11T12:31:06;3.90;89.10
55777;DHT22;54079;44.540;18.784;2024-01-11T12:33:32;3.90;87.20
55777;DHT22;54079;44.540;18.784;2024-01-11T12:36:00;3.90;88.60
55777;DHT22;54079;44.540;18.784;2024-01-11T12:38:27;3.70;86.80
55777;DHT22;54079;44.540;18.784;2024-01-11T12:40:53;3.50;87.10
55777;DHT22;54079;44.540;18.784;2024-01-11T12:43:19;3.30;87.80
55777;DHT22;54079;44.540;18.784;2024-01-11T12:45:45;3.30;88.20
55777;DHT22;54079;44.540;18.784;2024-01-11T12:48:11;3.50;88.00
55777;DHT22;54079;44.540;18.784;2024-01-11T12:50:40;3.50;89.00
55777;DHT22;54079;44.540;18.784;2024-01-11T12:55:32;3.60;87.40
55777;DHT22;54079;44.540;18.784;2024-01-11T12:58:09;3.70;86.70
55777;DHT22;54079;44.540;18.784;2024-01-11T13:00:38;3.50;88.90
55777;DHT22;54079;44.540;18.784;2024-01-11T13:03:07;3.60;88.40
55777;DHT22;54079;44.540;18.784;2024-01-11T13:05:35;3.50;86.80
55777;DHT22;54079;44.540;18.784;2024-01-11T13:08:10;3.50;88.30
55777;DHT22;54079;44.540;18.784;2024-01-11T13:10:37;3.30;87.80
55777;DHT22;54079;44.540;18.784;2024-01-11T13:13:04;3.00;89.10
55777;DHT22;54079;44.540;18.784;2024-01-11T13:15:31;3.20;89.10
55777;DHT22;54079;44.540;18.784;2024-01-11T13:18:00;3.10;88.70
55777;DHT22;54079;44.540;18.784;2024-01-11T13:20:28;3.10;88.40
55777;DHT22;54079;44.540;18.784;2024-01-11T13:23:16;3.10;88.80
55777;DHT22;54079;44.540;18.784;2024-01-11T13:25:44;3.10;90.20
55777;DHT22;54079;44.540;18.784;2024-01-11T13:28:10;3.10;90.10
55777;DHT22;54079;44.540;18.784;2024-01-11T13:30:41;3.30;90.10
55777;DHT22;54079;44.540;18.784;2024-01-11T13:33:08;3.30;89.80
55777;DHT22;54079;44.540;18.784;2024-01-11T13:35:35;3.10;89.00
55777;DHT22;54079;44.540;18.784;2024-01-11T13:38:01;3.10;90.80
55777;DHT22;54079;44.540;18.784;2024-01-11T13:40:31;1.50;89.60
55777;DHT22;54079;44.540;18.784;2024-01-11T13:42:58;1.00;92.20
55777;DHT22;54079;44.540;18.784;2024-01-11T13:45:25;0.70;94.40
55777;DHT22;54079;44.540;18.784;2024-01-11T13:47:52;1.10;93.30
55777;DHT22;54079;44.540;18.784;2024-01-11T13:50:22;1.30;92.80
55777;DHT22;54079;44.540;18.784;2024-01-11T13:52:52;1.50;93.50
55777;DHT22;54079;44.540;18.784;2024-01-11T13:55:17;1.80;93.10
55777;DHT22;54079;44.540;18.784;2024-01-11T13:57:44;1.70;92.80
55777;DHT22;54079;44.540;18.784;2024-01-11T14:00:11;1.80;91.90
55777;DHT22;54079;44.540;18.784;2024-01-11T14:02:37;1.90;91.60
55777;DHT22;54079;44.540;18.784;2024-01-11T14:05:08;2.00;92.10
55777;DHT22;54079;44.540;18.784;2024-01-11T14:07:40;2.00;92.10
55777;DHT22;54079;44.540;18.784;2024-01-11T14:10:07;1.90;92.00
55777;DHT22;54079;44.540;18.784;2024-01-11T14:12:37;1.80;91.50
55777;DHT22;54079;44.540;18.784;2024-01-11T14:15:04;1.80;91.80
55777;DHT22;54079;44.540;18.784;2024-01-11T14:17:34;1.70;91.80
55777;DHT22;54079;44.540;18.784;2024-01-11T14:20:01;1.80;91.50
55777;DHT22;54079;44.540;18.784;2024-01-11T14:22:27;1.60;92.00
55777;DHT22;54079;44.540;18.784;2024-01-11T14:24:53;1.70;91.70
55777;DHT22;54079;44.540;18.784;2024-01-11T14:27:20;1.70;92.00
55777;DHT22;54079;44.540;18.784;2024-01-11T14:29:47;1.80;91.90
55777;DHT22;54079;44.540;18.784;2024-01-11T14:32:14;1.60;91.80
55777;DHT22;54079;44.540;18.784;2024-01-11T14:34:42;1.70;94.20
55777;DHT22;54079;44.540;18.784;2024-01-11T14:37:10;1.60;91.80
55777;DHT22;54079;44.540;18.784;2024-01-11T14:39:37;1.40;93.80
55777;DHT22;54079;44.540;18.784;2024-01-11T14:42:06;1.50;92.50
55777;DHT22;54079;44.540;18.784;2024-01-11T14:44:35;1.50;93.30
55777;DHT22;54079;44.540;18.784;2024-01-11T14:47:02;1.50;92.40
55777;DHT22;54079;44.540;18.784;2024-01-11T14:49:28;1.50;93.00
55777;DHT22;54079;44.540;18.784;2024-01-11T14:51:55;1.60;92.90
55777;DHT22;54079;44.540;18.784;2024-01-11T14:54:21;1.60;93.30
55777;DHT22;54079;44.540;18.784;2024-01-11T14:56:47;1.50;92.90
55777;DHT22;54079;44.540;18.784;2024-01-11T14:59:13;1.30;92.30
55777;DHT22;54079;44.540;18.784;2024-01-11T15:01:39;1.30;93.70
55777;DHT22;54079;44.540;18.784;2024-01-11T15:04:05;1.30;93.40
55777;DHT22;54079;44.540;18.784;2024-01-11T15:06:31;1.20;92.80
55777;DHT22;54079;44.540;18.784;2024-01-11T15:08:57;1.10;93.80
55777;DHT22;54079;44.540;18.784;2024-01-11T15:11:23;1.00;93.60
55777;DHT22;54079;44.540;18.784;2024-01-11T15:13:49;1.00;93.50
55777;DHT22;54079;44.540;18.784;2024-01-11T15:16:15;0.90;93.60
55777;DHT22;54079;44.540;18.784;2024-01-11T15:18:41;0.90;93.40
55777;DHT22;54079;44.540;18.784;2024-01-11T15:21:07;0.90;94.30
55777;DHT22;54079;44.540;18.784;2024-01-11T15:23:33;0.80;94.10
55777;DHT22;54079;44.540;18.784;2024-01-11T15:26:01;1.00;94.00